Time;durP1;ratioP1;P1;durP2;ratioP2;P2;SDS_P1;SDS_P2;PMS_P1;PMS_P2;Temp;Humidity;BMP_temperature;BMP_pressure;BME280_temperature;BME280_humidity;BME280_pressure;Samples;Min_cycle;Max_cycle;Signal;HPM_P1;HPM_P2
2023/05/04 00:00:20;;;;;;;15.73;7.80;;;9.40;77.90;;;;;;6189928;22;88104;-80
2023/05/04 00:02:45;;;;;;;16.50;7.85;;;9.50;77.70;;;;;;6188392;22;87629;-80
2023/05/04 00:05:11;;;;;;;13.20;7.38;;;9.40;78.10;;;;;;6190680;22;87577;-80
2023/05/04 00:07:37;;;;;;;15.45;8.00;;;9.40;78.10;;;;;;6162428;22;91920;-80
2023/05/04 00:10:03;;;;;;;24.67;7.78;;;9.40;78.90;;;;;;6162604;22;92407;-80
2023/05/04 00:12:29;;;;;;;16.98;7.68;;;9.40;78.80;;;;;;6189021;22;87696;-81
2023/05/04 00:14:55;;;;;;;20.38;8.15;;;9.40;78.90;;;;;;6189552;22;87616;-80
2023/05/04 00:17:21;;;;;;;16.77;7.68;;;9.30;78.60;;;;;;6163612;22;91333;-80
2023/05/04 00:19:46;;;;;;;16.77;7.97;;;9.30;78.70;;;;;;6189324;22;87695;-80
2023/05/04 00:22:13;;;;;;;14.73;7.35;;;9.30;78.80;;;;;;6162719;22;87578;-80
2023/05/04 00:24:39;;;;;;;14.60;8.10;;;9.30;77.90;;;;;;6190355;22;87063;-80
2023/05/04 00:27:04;;;;;;;14.48;7.65;;;9.30;78.10;;;;;;6162914;22;91741;-80
2023/05/04 00:29:30;;;;;;;14.63;7.43;;;9.30;79.10;;;;;;6189552;22;90102;-80
2023/05/04 00:31:56;;;;;;;16.55;8.52;;;9.30;78.60;;;;;;6163834;22;88584;-80
2023/05/04 00:34:21;;;;;;;14.75;7.93;;;9.30;79.20;;;;;;6190967;22;87542;-80
2023/05/04 00:36:47;;;;;;;14.05;7.75;;;9.30;79.10;;;;;;6191660;22;88648;-80
2023/05/04 00:39:13;;;;;;;13.27;7.68;;;9.30;78.30;;;;;;6164932;22;90885;-80
2023/05/04 00:41:38;;;;;;;16.25;8.25;;;9.30;78.80;;;;;;6192450;22;87050;-80
2023/05/04 00:44:05;;;;;;;12.43;7.95;;;9.30;79.10;;;;;;6164891;22;94796;-80
2023/05/04 00:46:31;;;;;;;17.08;8.68;;;9.30;80.10;;;;;;6192298;22;88353;-80
2023/05/04 00:48:58;;;;;;;16.92;8.73;;;9.30;79.70;;;;;;6165401;22;91234;-80
2023/05/04 00:51:25;;;;;;;16.17;8.77;;;9.20;79.60;;;;;;6164855;22;87285;-80
2023/05/04 00:53:52;;;;;;;15.95;9.55;;;9.20;79.90;;;;;;6188068;22;87290;-80
2023/05/04 00:56:22;;;;;;;22.55;9.50;;;9.20;79.80;;;;;;6186440;22;88637;-80
2023/05/04 00:58:50;;;;;;;19.75;10.23;;;9.20;81.40;;;;;;6185690;22;89018;-80
2023/05/04 01:01:16;;;;;;;15.48;8.50;;;9.20;80.60;;;;;;6158394;22;87395;-80
2023/05/04 01:03:42;;;;;;;21.25;10.57;;;9.10;80.60;;;;;;6186067;22;87560;-80
2023/05/04 01:06:26;;;;;;;25.60;9.50;;;9.10;80.60;;;;;;6186945;22;88577;-80
2023/05/04 01:09:06;;;;;;;19.58;10.43;;;9.10;81.40;;;;;;6161463;22;90952;-80
2023/05/04 01:12:04;;;;;;;20.05;9.77;;;9.10;80.60;;;;;;6188491;22;87248;-80
2023/05/04 01:14:32;;;;;;;14.48;9.95;;;9.10;81.80;;;;;;6161951;22;94754;-80
2023/05/04 01:16:59;;;;;;;19.30;9.65;;;9.00;82.10;;;;;;6161039;22;90920;-80
2023/05/04 01:19:26;;;;;;;17.15;9.13;;;9.00;82.50;;;;;;6188128;22;88610;-80
2023/05/04 01:21:52;;;;;;;15.13;9.40;;;8.90;81.10;;;;;;6160514;22;89032;-80
2023/05/04 01:24:19;;;;;;;15.38;9.05;;;8.90;81.60;;;;;;6188471;22;87272;-80
2023/05/04 01:26:47;;;;;;;18.33;9.90;;;8.90;82.70;;;;;;6187970;22;88039;-80
2023/05/04 01:29:26;;;;;;;13.20;8.10;;;8.80;82.30;;;;;;6162119;22;91338;-80
2023/05/04 01:31:53;;;;;;;19.83;9.40;;;8.80;82.00;;;;;;6161495;22;87535;-80
2023/05/04 01:34:20;;;;;;;18.48;9.27;;;8.80;81.80;;;;;;6160709;22;91036;-80
2023/05/04 01:36:46;;;;;;;15.02;8.45;;;8.80;83.30;;;;;;6187965;22;89139;-80
2023/05/04 01:39:12;;;;;;;17.90;9.45;;;8.80;83.30;;;;;;6161332;22;91625;-80
2023/05/04 01:41:38;;;;;;;14.10;8.82;;;8.70;83.10;;;;;;6162632;22;87380;-80
2023/05/04 01:44:04;;;;;;;19.08;8.88;;;8.80;82.30;;;;;;6188949;22;87954;-80
2023/05/04 01:46:30;;;;;;;17.85;8.90;;;8.70;82.50;;;;;;6160859;22;91851;-80
2023/05/04 01:48:56;;;;;;;16.48;9.20;;;8.70;83.50;;;;;;6187921;22;88360;-80
2023/05/04 01:51:21;;;;;;;15.93;8.80;;;8.70;83.30;;;;;;6188057;22;87756;-80
2023/05/04 01:53:47;;;;;;;14.68;8.90;;;8.70;83.20;;;;;;6188337;22;87428;-79
2023/05/04 01:56:13;;;;;;;17.60;8.77;;;8.70;83.90;;;;;;6189191;22;88185;-79
2023/05/04 01:58:38;;;;;;;17.33;8.90;;;8.70;84.00;;;;;;6161334;22;90882;-81
2023/05/04 02:01:04;;;;;;;15.77;8.75;;;8.70;83.50;;;;;;6160892;22;87515;-80
2023/05/04 02:03:30;;;;;;;16.60;10.05;;;8.70;83.50;;;;;;6187035;22;86694;-80
2023/05/04 02:05:56;;;;;;;19.23;8.68;;;8.70;83.90;;;;;;6187420;22;88491;-81
2023/05/04 02:08:21;;;;;;;15.43;8.52;;;8.70;84.30;;;;;;6162567;22;91224;-80
2023/05/04 02:10:47;;;;;;;16.25;8.15;;;8.60;83.60;;;;;;6160799;22;88362;-80
2023/05/04 02:13:13;;;;;;;16.27;8.57;;;8.60;83.80;;;;;;6161090;22;89160;-81
2023/05/04 02:15:39;;;;;;;17.45;9.27;;;8.60;83.80;;;;;;6188457;22;88121;-80
2023/05/04 02:18:05;;;;;;;15.25;7.97;;;8.60;84.40;;;;;;6161081;22;91153;-80
2023/05/04 02:20:30;;;;;;;14.00;8.40;;;8.60;83.90;;;;;;6188644;22;87787;-80
2023/05/04 02:22:56;;;;;;;17.35;8.52;;;8.60;84.10;;;;;;6189249;22;87476;-80
2023/05/04 02:25:22;;;;;;;13.60;8.25;;;8.60;84.10;;;;;;6186842;22;88644;-80
2023/05/04 02:27:48;;;;;;;18.48;8.55;;;8.60;84.00;;;;;;6161229;22;91130;-80
2023/05/04 02:30:13;;;;;;;13.85;8.35;;;8.60;84.50;;;;;;6161014;22;87666;-80
2023/05/04 02:32:39;;;;;;;13.65;7.88;;;8.60;84.30;;;;;;6165665;22;90641;-81
2023/05/04 02:35:05;;;;;;;13.85;8.60;;;8.60;84.00;;;;;;6166385;22;91280;-81
2023/05/04 02:37:31;;;;;;;19.10;8.95;;;8.60;84.70;;;;;;6162637;22;91947;-80
2023/05/04 02:39:57;;;;;;;15.90;9.43;;;8.60;84.70;;;;;;6188111;22;87779;-80
2023/05/04 02:42:22;;;;;;;13.75;8.30;;;8.50;84.80;;;;;;6187235;22;87917;-80
2023/05/04 02:44:48;;;;;;;14.85;8.30;;;8.50;84.90;;;;;;6187488;22;88076;-80
2023/05/04 02:47:13;;;;;;;15.82;8.55;;;8.50;84.80;;;;;;6189111;22;88716;-80
2023/05/04 02:49:39;;;;;;;11.73;7.82;;;8.50;85.60;;;;;;6188327;22;87469;-80
2023/05/04 02:52:05;;;;;;;16.27;8.45;;;8.40;84.50;;;;;;6188492;22;87753;-80
2023/05/04 02:54:30;;;;;;;15.88;7.72;;;8.40;85.20;;;;;;6160418;22;90501;-80
2023/05/04 02:56:56;;;;;;;18.23;8.68;;;8.40;84.50;;;;;;6187425;22;88757;-80
2023/05/04 02:59:22;;;;;;;15.35;8.68;;;8.30;84.80;;;;;;6161116;22;88373;-80
2023/05/04 03:01:47;;;;;;;13.70;8.60;;;8.30;85.30;;;;;;6160677;22;90107;-80
2023/05/04 03:04:13;;;;;;;16.00;8.32;;;8.30;85.80;;;;;;6187138;22;88266;-80
2023/05/04 03:06:38;;;;;;;18.52;8.18;;;8.20;85.30;;;;;;6186267;22;88778;-80
2023/05/04 03:09:04;;;;;;;14.55;8.57;;;8.20;84.90;;;;;;6188303;22;87061;-80
2023/05/04 03:11:30;;;;;;;17.08;7.93;;;8.20;84.60;;;;;;6161471;22;90327;-80
2023/05/04 03:13:55;;;;;;;21.27;9.43;;;8.20;85.50;;;;;;6188064;22;88785;-80
2023/05/04 03:16:21;;;;;;;16.13;8.15;;;8.20;85.00;;;;;;6162892;22;91286;-80
2023/05/04 03:18:47;;;;;;;15.35;8.68;;;8.20;84.30;;;;;;6161680;22;87423;-80
2023/05/04 03:21:12;;;;;;;14.77;7.88;;;8.20;84.20;;;;;;6162568;22;88933;-80
2023/05/04 03:23:38;;;;;;;18.27;8.55;;;8.10;84.70;;;;;;6162713;22;91594;-80
2023/05/04 03:26:04;;;;;;;16.17;8.63;;;8.10;84.90;;;;;;6161749;22;99169;-80
2023/05/04 03:28:29;;;;;;;12.20;8.00;;;8.10;85.50;;;;;;6163133;22;87295;-80
2023/05/04 03:30:55;;;;;;;12.10;7.63;;;8.10;84.90;;;;;;6162667;22;90697;-80
2023/05/04 03:33:21;;;;;;;18.02;8.13;;;8.00;85.20;;;;;;6189595;22;88693;-80
2023/05/04 03:35:46;;;;;;;14.85;8.30;;;8.00;85.00;;;;;;6189496;22;88561;-80
2023/05/04 03:38:12;;;;;;;16.40;8.30;;;8.00;85.80;;;;;;6165607;22;87330;-81
2023/05/04 03:40:38;;;;;;;17.40;8.70;;;7.90;85.70;;;;;;6164662;22;90540;-81
2023/05/04 03:43:04;;;;;;;13.63;7.95;;;7.90;85.60;;;;;;6190609;22;88210;-80
2023/05/04 03:45:29;;;;;;;15.13;9.23;;;7.90;85.80;;;;;;6164292;22;91386;-81
2023/05/04 03:47:55;;;;;;;16.40;8.70;;;7.90;85.60;;;;;;6190674;22;88257;-80
2023/05/04 03:50:21;;;;;;;19.05;10.02;;;7.80;86.50;;;;;;6167194;22;89602;-80
2023/05/04 03:52:48;;;;;;;12.43;7.88;;;7.80;87.00;;;;;;6166260;22;91619;-80
2023/05/04 03:55:14;;;;;;;16.55;8.95;;;7.70;87.10;;;;;;6166417;22;90532;-80
2023/05/04 03:57:40;;;;;;;15.35;8.45;;;7.70;87.60;;;;;;6192852;22;87399;-80
2023/05/04 04:00:06;;;;;;;15.57;8.70;;;7.60;87.50;;;;;;6189316;22;87440;-80
2023/05/04 04:02:32;;;;;;;20.38;9.52;;;7.60;88.30;;;;;;6188936;22;90388;-80
2023/05/04 04:04:58;;;;;;;16.13;8.40;;;7.60;89.00;;;;;;6161488;22;89938;-80
2023/05/04 04:07:24;;;;;;;19.80;9.23;;;7.50;88.50;;;;;;6162190;22;87341;-80
2023/05/04 04:09:51;;;;;;;15.90;8.27;;;7.50;89.20;;;;;;6189538;22;87569;-80
2023/05/04 04:12:18;;;;;;;18.83;8.23;;;7.40;89.00;;;;;;6160835;22;92796;-80
2023/05/04 04:14:44;;;;;;;14.18;7.97;;;7.40;89.30;;;;;;6161315;22;95249;-80
2023/05/04 04:17:09;;;;;;;13.85;8.73;;;7.40;88.50;;;;;;6163248;22;87026;-80
2023/05/04 04:19:35;;;;;;;16.42;8.43;;;7.30;89.20;;;;;;6161349;22;90359;-80
2023/05/04 04:22:01;;;;;;;16.55;8.75;;;7.20;90.00;;;;;;6186640;22;89044;-80
2023/05/04 04:24:27;;;;;;;18.95;8.85;;;7.20;90.00;;;;;;6160807;22;89960;-81
2023/05/04 04:26:53;;;;;;;17.27;10.07;;;7.20;89.60;;;;;;6187811;22;87442;-80
2023/05/04 04:29:18;;;;;;;19.38;9.55;;;7.20;89.70;;;;;;6187600;22;89278;-80
2023/05/04 04:31:44;;;;;;;17.08;9.35;;;7.20;90.00;;;;;;6188686;22;87477;-80
2023/05/04 04:34:10;;;;;;;16.30;9.45;;;7.20;90.00;;;;;;6188827;22;87772;-80
2023/05/04 04:36:35;;;;;;;17.90;9.05;;;7.20;89.60;;;;;;6188166;22;88436;-80
2023/05/04 04:39:03;;;;;;;20.30;9.13;;;7.20;89.70;;;;;;6189663;22;87339;-80
2023/05/04 04:41:29;;;;;;;16.38;8.90;;;7.20;90.40;;;;;;6190922;22;87781;-80
2023/05/04 04:43:55;;;;;;;17.40;9.02;;;7.20;90.20;;;;;;6190922;22;88571;-80
2023/05/04 04:46:21;;;;;;;21.55;9.77;;;7.30;90.40;;;;;;6190485;22;87428;-80
2023/05/04 04:48:46;;;;;;;14.52;8.98;;;7.30;90.50;;;;;;6190734;22;89505;-80
2023/05/04 04:51:12;;;;;;;19.08;8.70;;;7.30;90.30;;;;;;6194137;22;87792;-80
2023/05/04 04:53:38;;;;;;;20.35;8.88;;;7.40;90.70;;;;;;6194259;22;87792;-80
2023/05/04 04:56:06;;;;;;;18.23;8.85;;;7.40;90.50;;;;;;6191878;22;87770;-80
2023/05/04 04:58:32;;;;;;;18.33;9.20;;;7.40;90.30;;;;;;6161480;22;89788;-80
2023/05/04 05:00:58;;;;;;;17.40;9.23;;;7.50;90.30;;;;;;6160118;22;92600;-80
2023/05/04 05:03:24;;;;;;;16.55;9.10;;;7.60;90.40;;;;;;6187975;22;89679;-80
2023/05/04 05:05:49;;;;;;;21.83;9.00;;;7.60;90.40;;;;;;6187052;22;87265;-80
2023/05/04 05:08:15;;;;;;;15.77;8.20;;;7.60;90.50;;;;;;6161398;22;89190;-80
2023/05/04 05:10:41;;;;;;;16.30;8.50;;;7.70;90.20;;;;;;6187942;22;88973;-80
2023/05/04 05:13:07;;;;;;;13.52;8.35;;;7.80;90.30;;;;;;6187576;22;88236;-80
2023/05/04 05:15:33;;;;;;;17.55;7.90;;;7.80;90.00;;;;;;6185924;22;87635;-80
2023/05/04 05:17:59;;;;;;;16.13;8.00;;;7.90;90.10;;;;;;6160397;22;89911;-80
2023/05/04 05:20:25;;;;;;;14.48;7.70;;;7.90;90.00;;;;;;6187614;22;88999;-80
2023/05/04 05:22:51;;;;;;;15.18;8.52;;;7.90;89.60;;;;;;6160304;22;91304;-80
2023/05/04 05:25:17;;;;;;;15.80;8.27;;;8.00;89.90;;;;;;6185522;22;88006;-80
2023/05/04 05:27:43;;;;;;;17.80;9.35;;;8.10;89.50;;;;;;6186474;22;87454;-80
2023/05/04 05:30:10;;;;;;;15.25;9.18;;;8.10;90.00;;;;;;6159712;22;91098;-80
2023/05/04 05:32:36;;;;;;;18.17;8.38;;;8.20;89.70;;;;;;6188682;22;88208;-78
2023/05/04 05:35:03;;;;;;;24.08;8.30;;;8.30;89.30;;;;;;6189831;22;87540;-81
2023/05/04 05:37:31;;;;;;;20.85;9.25;;;8.30;89.60;;;;;;6193153;22;87945;-81
2023/05/04 05:39:56;;;;;;;15.95;8.82;;;8.40;89.20;;;;;;6156925;22;90175;-80
2023/05/04 05:42:22;;;;;;;14.95;8.10;;;8.40;89.20;;;;;;6204734;22;86636;-82
2023/05/04 05:44:48;;;;;;;11.15;8.20;;;8.50;88.60;;;;;;6184137;22;87423;-79
2023/05/04 05:47:14;;;;;;;14.23;8.35;;;8.60;89.20;;;;;;6182769;22;87465;-80
2023/05/04 05:49:40;;;;;;;19.73;8.73;;;8.70;88.50;;;;;;6196507;22;89025;-80
2023/05/04 05:54:53;;;;;;;16.10;8.00;;;8.90;88.20;;;;;;6097359;22;88478;-82
2023/05/04 06:02:39;;;;;;;14.35;7.75;;;9.20;86.60;;;;;;6087616;22;89355;-81
2023/05/04 07:02:11;;;;;;;8.48;6.18;;;12.50;75.70;;;;;;6132843;22;88737;-81
2023/05/04 07:04:39;;;;;;;19.92;7.13;;;12.70;74.50;;;;;;6168957;22;87307;-82
2023/05/04 07:07:04;;;;;;;11.63;6.20;;;12.90;73.50;;;;;;6177287;22;88144;-82
2023/05/04 07:09:30;;;;;;;10.57;6.43;;;13.10;74.30;;;;;;6193062;22;89015;-82
2023/05/04 07:11:56;;;;;;;12.70;6.50;;;13.30;73.60;;;;;;6172417;22;90112;-82
2023/05/04 07:17:02;;;;;;;10.32;5.97;;;13.70;73.30;;;;;;6107949;22;88413;-83
2023/05/04 07:29:50;;;;;;;10.10;6.03;;;14.70;67.90;;;;;;6157118;22;88047;-81
2023/05/04 07:32:16;;;;;;;9.40;5.47;;;14.80;67.50;;;;;;6194848;22;88337;-81
2023/05/04 07:34:43;;;;;;;9.52;5.70;;;15.00;67.30;;;;;;6193278;22;88365;-81
2023/05/04 07:37:09;;;;;;;13.43;5.32;;;15.20;67.30;;;;;;6166417;22;87131;-82
2023/05/04 07:39:35;;;;;;;12.38;5.53;;;15.40;68.20;;;;;;6196010;22;87651;-81
2023/05/04 07:42:04;;;;;;;10.50;4.85;;;15.70;66.50;;;;;;6194405;22;87354;-82
2023/05/04 07:44:30;;;;;;;8.98;4.72;;;15.80;65.50;;;;;;6190608;22;91442;-82
2023/05/04 07:47:00;;;;;;;9.07;5.60;;;16.00;64.80;;;;;;6187735;22;87576;-81
2023/05/04 07:49:26;;;;;;;10.88;5.32;;;16.20;64.30;;;;;;6158188;22;89845;-82
2023/05/04 07:51:52;;;;;;;11.48;5.07;;;16.30;63.40;;;;;;6184164;22;88422;-82
2023/05/04 07:54:18;;;;;;;6.97;4.90;;;16.50;62.80;;;;;;6183983;22;87902;-81
2023/05/04 07:56:43;;;;;;;8.75;5.18;;;16.60;63.40;;;;;;6157663;22;88311;-81
2023/05/04 07:59:09;;;;;;;12.32;5.32;;;16.70;61.40;;;;;;6185351;22;87590;-81
2023/05/04 08:01:35;;;;;;;7.50;4.60;;;16.80;62.00;;;;;;6187240;22;88171;-83
2023/05/04 08:04:01;;;;;;;7.40;4.88;;;17.00;62.40;;;;;;6186669;22;87534;-83
2023/05/04 08:06:26;;;;;;;6.90;4.72;;;17.10;61.00;;;;;;6186424;22;87372;-82
2023/05/04 08:08:52;;;;;;;11.98;5.45;;;17.30;61.90;;;;;;6186747;22;87893;-82
2023/05/04 08:11:18;;;;;;;10.75;5.32;;;17.50;61.20;;;;;;6187582;22;88498;-82
2023/05/04 08:13:45;;;;;;;11.55;5.63;;;17.60;62.00;;;;;;6187224;22;88295;-82
2023/05/04 08:16:11;;;;;;;8.02;4.00;;;17.80;60.80;;;;;;6160623;22;87409;-83
2023/05/04 08:18:37;;;;;;;6.80;4.38;;;18.00;61.00;;;;;;6186967;22;87495;-81
2023/05/04 08:21:03;;;;;;;8.52;4.57;;;18.20;60.10;;;;;;6186493;22;88562;-84
2023/05/04 08:23:29;;;;;;;9.95;5.03;;;18.30;57.50;;;;;;6160763;22;90393;-82
2023/05/04 08:25:54;;;;;;;6.80;4.07;;;18.40;59.90;;;;;;6186626;22;87457;-82
2023/05/04 08:28:20;;;;;;;8.10;4.15;;;18.60;58.70;;;;;;6186667;22;87740;-83
2023/05/04 08:30:46;;;;;;;8.82;3.80;;;18.80;58.00;;;;;;6185498;22;89738;-82
2023/05/04 08:33:11;;;;;;;7.35;3.88;;;19.00;59.30;;;;;;6158981;22;89292;-81
2023/05/04 08:35:37;;;;;;;9.48;4.20;;;19.30;58.00;;;;;;6160458;22;87357;-80
2023/05/04 08:38:03;;;;;;;6.40;4.05;;;19.40;56.20;;;;;;6187417;22;87703;-80
2023/05/04 08:40:29;;;;;;;9.73;4.32;;;19.60;56.10;;;;;;6185868;22;88151;-80
2023/05/04 08:42:55;;;;;;;6.60;4.47;;;19.80;55.30;;;;;;6186239;22;88219;-79
2023/05/04 08:45:22;;;;;;;6.70;3.47;;;20.10;55.80;;;;;;6159305;22;88307;-80
2023/05/04 08:47:47;;;;;;;7.07;3.78;;;20.30;56.00;;;;;;6185978;22;87375;-80
2023/05/04 08:50:16;;;;;;;8.20;3.65;;;20.40;54.80;;;;;;6160294;22;91421;-81
2023/05/04 08:52:46;;;;;;;7.57;4.10;;;20.70;55.50;;;;;;6158828;22;89919;-80
2023/05/04 08:55:12;;;;;;;10.60;4.25;;;20.80;52.80;;;;;;6159227;22;87275;-81
2023/05/04 08:57:41;;;;;;;9.70;4.30;;;21.00;53.10;;;;;;6186341;22;87858;-81
2023/05/04 09:00:08;;;;;;;11.65;4.03;;;21.20;52.70;;;;;;6158531;22;91711;-81
2023/05/04 09:02:35;;;;;;;6.47;3.80;;;21.40;51.90;;;;;;6186362;22;90079;-80
2023/05/04 09:05:01;;;;;;;10.23;4.07;;;21.60;52.50;;;;;;6185101;22;87554;-80
2023/05/04 09:07:27;;;;;;;6.40;4.45;;;21.80;51.50;;;;;;6186143;22;87607;-81
2023/05/04 09:09:53;;;;;;;10.52;4.03;;;21.90;51.40;;;;;;6184966;22;89393;-81
2023/05/04 09:12:19;;;;;;;8.25;4.28;;;22.10;51.20;;;;;;6184851;22;89407;-81
2023/05/04 09:14:45;;;;;;;6.10;3.55;;;22.40;49.00;;;;;;6186738;22;87365;-80
2023/05/04 09:17:24;;;;;;;8.23;3.63;;;22.70;50.10;;;;;;6160181;22;89097;-81
2023/05/04 09:19:58;;;;;;;6.72;3.72;;;22.90;49.40;;;;;;6159445;22;89160;-80
2023/05/04 09:22:23;;;;;;;6.18;3.63;;;23.10;49.40;;;;;;6186144;22;88786;-80
2023/05/04 09:24:49;;;;;;;6.30;3.20;;;23.30;48.70;;;;;;6186495;22;87192;-80
2023/05/04 09:27:16;;;;;;;6.22;3.60;;;23.50;49.20;;;;;;6185755;22;87726;-80
2023/05/04 09:29:43;;;;;;;5.50;3.55;;;23.70;48.90;;;;;;6158567;22;92050;-80
2023/05/04 09:32:13;;;;;;;5.07;3.20;;;24.00;48.80;;;;;;6187475;22;87536;-80
2023/05/04 09:34:50;;;;;;;5.43;3.47;;;24.20;47.80;;;;;;6158786;22;88401;-80
2023/05/04 09:37:17;;;;;;;4.45;3.33;;;24.50;46.80;;;;;;6159406;22;89164;-80
2023/05/04 09:39:54;;;;;;;6.43;3.50;;;24.50;44.90;;;;;;6158499;22;91326;-79
2023/05/04 09:42:21;;;;;;;5.28;3.50;;;24.60;45.90;;;;;;6186031;22;88307;-80
2023/05/04 09:45:01;;;;;;;6.70;3.15;;;24.50;46.30;;;;;;6186558;22;87517;-80
2023/05/04 09:47:38;;;;;;;5.00;3.92;;;24.70;46.20;;;;;;6186955;22;87465;-80
2023/05/04 09:50:17;;;;;;;8.35;4.25;;;24.80;45.50;;;;;;6186043;22;88335;-80
2023/05/04 09:52:44;;;;;;;4.90;3.05;;;25.00;45.50;;;;;;6186466;22;88347;-80
2023/05/04 09:55:12;;;;;;;4.65;3.00;;;25.10;45.30;;;;;;6186008;22;87333;-81
2023/05/04 09:57:40;;;;;;;5.47;2.88;;;25.30;45.10;;;;;;6185063;22;87909;-82
2023/05/04 10:00:11;;;;;;;6.22;3.45;;;25.50;45.90;;;;;;6158933;22;91777;-80
2023/05/04 10:02:38;;;;;;;5.32;3.20;;;25.70;44.00;;;;;;6159846;22;91272;-80
2023/05/04 10:05:06;;;;;;;5.53;2.90;;;25.90;44.60;;;;;;6186637;22;87444;-81
2023/05/04 10:07:32;;;;;;;7.47;3.05;;;26.10;44.70;;;;;;6185997;22;87640;-81
2023/05/04 10:09:59;;;;;;;4.10;2.65;;;26.10;45.40;;;;;;6158972;22;91063;-80
2023/05/04 10:12:25;;;;;;;7.60;3.80;;;26.30;43.60;;;;;;6185752;22;89003;-81
2023/05/04 10:14:50;;;;;;;4.25;2.97;;;26.40;43.90;;;;;;6159698;22;87300;-80
2023/05/04 10:17:32;;;;;;;6.65;3.15;;;26.40;43.40;;;;;;6160409;22;90045;-82
2023/05/04 10:20:09;;;;;;;5.45;3.25;;;26.60;45.60;;;;;;6186382;22;88506;-82
2023/05/04 10:22:50;;;;;;;8.27;2.60;;;26.80;43.80;;;;;;6186287;22;88785;-81
2023/05/04 10:25:23;;;;;;;6.85;2.80;;;27.10;43.80;;;;;;6159465;22;88362;-79
2023/05/04 10:27:52;;;;;;;6.32;3.60;;;27.20;43.20;;;;;;6186338;22;87567;-82
2023/05/04 10:30:18;;;;;;;8.40;2.90;;;27.20;41.20;;;;;;6185972;22;88602;-82
2023/05/04 10:32:44;;;;;;;4.20;2.95;;;27.00;41.90;;;;;;6186662;22;87859;-89
2023/05/04 10:35:10;;;;;;;11.38;4.68;;;27.10;42.20;;;;;;6160672;22;87406;-84
2023/05/04 10:37:39;;;;;;;8.00;3.85;;;27.30;40.60;;;;;;6159513;22;90431;-83
2023/05/04 10:40:06;;;;;;;8.65;3.63;;;27.40;40.70;;;;;;6186038;22;88979;-82
2023/05/04 10:42:42;;;;;;;5.50;2.95;;;27.50;42.80;;;;;;6185329;22;90902;-82
2023/05/04 10:45:08;;;;;;;5.95;3.35;;;27.70;42.00;;;;;;6159387;22;87502;-84
2023/05/04 10:47:36;;;;;;;6.20;3.28;;;27.70;40.90;;;;;;6160067;22;90931;-81
2023/05/04 10:50:14;;;;;;;9.18;3.08;;;27.90;42.30;;;;;;6158465;22;92154;-80
2023/05/04 10:52:52;;;;;;;7.15;3.08;;;28.20;42.30;;;;;;6158498;22;92552;-83
2023/05/04 10:55:20;;;;;;;7.55;3.30;;;28.50;44.10;;;;;;6158803;22;87271;-80
2023/05/04 10:57:50;;;;;;;5.07;2.50;;;28.70;41.80;;;;;;6158815;22;90601;-79
2023/05/04 11:00:17;;;;;;;5.30;3.13;;;28.90;44.90;;;;;;6185991;22;88614;-81
2023/05/04 11:02:43;;;;;;;4.78;2.70;;;29.00;43.30;;;;;;6159203;22;90937;-82
2023/05/04 11:05:16;;;;;;;6.13;2.60;;;29.10;42.40;;;;;;6160335;22;87303;-86
2023/05/04 11:07:41;;;;;;;6.68;3.08;;;29.10;42.80;;;;;;6159735;22;91506;-85
2023/05/04 11:10:19;;;;;;;5.05;2.85;;;29.10;41.80;;;;;;6186240;22;89066;-81
2023/05/04 11:12:45;;;;;;;7.05;2.60;;;29.20;43.10;;;;;;6185616;22;91544;-80
2023/05/04 11:15:10;;;;;;;4.38;2.88;;;29.40;42.20;;;;;;6185235;22;88430;-79
2023/05/04 11:17:46;;;;;;;3.47;2.20;;;29.60;42.00;;;;;;6185622;22;87723;-80
2023/05/04 11:20:19;;;;;;;6.85;2.30;;;29.80;42.60;;;;;;6185904;22;91745;-83
2023/05/04 11:22:45;;;;;;;5.85;2.20;;;29.90;42.00;;;;;;6159454;22;90134;-86
2023/05/04 11:25:11;;;;;;;2.80;2.30;;;30.10;41.90;;;;;;6159187;22;87425;-89
2023/05/04 11:27:37;;;;;;;3.45;2.13;;;30.10;40.40;;;;;;6158483;22;89217;-89
2023/05/04 11:30:04;;;;;;;6.55;2.92;;;30.10;40.70;;;;;;6158347;22;91949;-82
2023/05/04 11:32:33;;;;;;;6.00;2.00;;;30.20;39.50;;;;;;6187178;22;88479;-87
2023/05/04 11:35:00;;;;;;;5.70;2.33;;;30.40;38.80;;;;;;6159874;22;87514;-87
2023/05/04 11:37:28;;;;;;;3.78;2.17;;;30.70;39.20;;;;;;6160442;22;90691;-81
2023/05/04 11:39:55;;;;;;;4.07;1.88;;;30.80;39.60;;;;;;6186425;22;89093;-88
2023/05/04 11:42:21;;;;;;;4.00;2.58;;;31.00;39.40;;;;;;6160742;22;92081;-89
2023/05/04 11:44:47;;;;;;;5.85;2.25;;;31.10;37.70;;;;;;6161399;22;87560;-87
2023/05/04 11:47:14;;;;;;;7.30;3.15;;;31.30;38.80;;;;;;6162238;22;90186;-87
2023/05/04 11:49:41;;;;;;;5.38;2.50;;;31.40;38.20;;;;;;6161616;22;91277;-87
2023/05/04 11:52:07;;;;;;;5.72;2.25;;;31.30;39.30;;;;;;6161473;22;89948;-90
2023/05/04 11:54:33;;;;;;;5.88;2.20;;;31.40;39.20;;;;;;6161316;22;87602;-89
2023/05/04 11:57:02;;;;;;;7.53;2.08;;;31.30;38.90;;;;;;6161142;22;89823;-82
2023/05/04 11:59:29;;;;;;;5.30;2.00;;;31.50;39.30;;;;;;6160331;22;90700;-82
2023/05/04 12:01:57;;;;;;;4.00;2.20;;;31.80;40.00;;;;;;6159283;22;91265;-82
2023/05/04 12:04:29;;;;;;;4.50;1.73;;;31.70;38.50;;;;;;6186100;22;88392;-82
2023/05/04 12:06:55;;;;;;;4.47;2.53;;;31.40;39.40;;;;;;6157537;22;94371;-81
2023/05/04 12:09:20;;;;;;;3.58;2.17;;;31.50;36.90;;;;;;6158727;22;91600;-82
2023/05/04 12:11:54;;;;;;;3.20;1.63;;;31.70;37.10;;;;;;6106664;22;89678;-81
2023/05/04 12:14:23;;;;;;;3.45;1.55;;;31.90;37.70;;;;;;6181571;22;87617;-82
2023/05/04 12:16:56;;;;;;;3.70;1.73;;;32.00;37.30;;;;;;6158638;22;90641;-82
2023/05/04 12:19:22;;;;;;;3.53;1.55;;;32.10;37.60;;;;;;6185522;22;88007;-81
2023/05/04 12:21:49;;;;;;;1.77;1.50;;;32.00;38.60;;;;;;6186448;22;88106;-83
2023/05/04 12:24:15;;;;;;;5.78;1.67;;;31.80;38.00;;;;;;6159114;22;87471;-82
2023/05/04 12:26:41;;;;;;;1.45;1.13;;;31.80;38.60;;;;;;6158916;22;89388;-81
2023/05/04 12:29:07;;;;;;;3.75;2.13;;;31.90;38.40;;;;;;6159137;22;92374;-82
2023/05/04 12:31:32;;;;;;;4.32;1.95;;;32.10;38.20;;;;;;6185146;22;88884;-82
2023/05/04 12:33:58;;;;;;;4.30;1.58;;;32.10;36.90;;;;;;6158780;22;87482;-83
2023/05/04 12:36:24;;;;;;;4.90;1.60;;;32.00;37.30;;;;;;6158986;22;89142;-83
2023/05/04 12:38:49;;;;;;;4.55;1.92;;;32.00;39.00;;;;;;6158588;22;91555;-83
2023/05/04 12:41:15;;;;;;;4.93;1.75;;;32.10;36.90;;;;;;6187268;22;88349;-82
2023/05/04 12:43:41;;;;;;;3.33;1.50;;;32.20;37.90;;;;;;6185903;22;87372;-82
2023/05/04 12:46:08;;;;;;;2.83;2.13;;;32.50;38.60;;;;;;6158653;22;90355;-82
2023/05/04 12:48:34;;;;;;;4.88;2.00;;;32.80;37.30;;;;;;6157361;22;89207;-82
2023/05/04 12:51:01;;;;;;;2.05;1.50;;;32.90;36.50;;;;;;6157810;22;91628;-83
2023/05/04 12:53:30;;;;;;;3.88;1.70;;;32.90;36.90;;;;;;6155893;22;88385;-83
2023/05/04 12:56:00;;;;;;;3.20;1.90;;;33.10;36.50;;;;;;6184257;22;87469;-83
2023/05/04 12:58:27;;;;;;;4.20;1.98;;;33.20;35.20;;;;;;6159351;22;90407;-84
2023/05/04 13:00:53;;;;;;;2.60;1.40;;;33.40;36.80;;;;;;6159069;22;90006;-83
2023/05/04 13:03:19;;;;;;;3.90;1.55;;;33.60;36.50;;;;;;6159168;22;87405;-84
2023/05/04 13:05:46;;;;;;;2.67;1.58;;;33.70;36.30;;;;;;6155861;22;88972;-85
2023/05/04 13:08:12;;;;;;;4.40;1.80;;;33.70;35.80;;;;;;6188468;22;87550;-90
2023/05/04 13:10:37;;;;;;;6.85;1.90;;;33.90;34.80;;;;;;6159915;22;90205;-87
2023/05/04 13:13:06;;;;;;;3.95;1.60;;;33.80;34.40;;;;;;6157039;22;87415;-85
2023/05/04 13:15:32;;;;;;;4.80;1.60;;;33.90;35.20;;;;;;6155572;22;90050;-87
2023/05/04 13:17:59;;;;;;;4.97;1.65;;;34.20;32.80;;;;;;6154372;22;92680;-85
2023/05/04 13:20:25;;;;;;;4.68;1.17;;;34.10;32.70;;;;;;6156627;22;91037;-90
2023/05/04 13:22:51;;;;;;;2.90;1.33;;;34.10;34.80;;;;;;6156040;22;87584;-86
2023/05/04 13:25:17;;;;;;;3.15;1.00;;;34.10;35.70;;;;;;6155048;22;89318;-89
2023/05/04 13:27:43;;;;;;;1.63;1.15;;;34.10;33.50;;;;;;6154463;22;90117;-90
2023/05/04 13:30:09;;;;;;;1.67;1.00;;;34.20;34.00;;;;;;6155018;22;90144;-89
2023/05/04 13:32:35;;;;;;;2.97;1.13;;;34.50;34.00;;;;;;6156345;22;87625;-88
2023/05/04 13:35:02;;;;;;;2.42;1.17;;;34.80;32.10;;;;;;6157446;22;88427;-87
2023/05/04 13:37:28;;;;;;;3.38;1.23;;;34.90;32.70;;;;;;6158333;22;90496;-88
2023/05/04 13:39:55;;;;;;;6.07;1.10;;;35.00;31.40;;;;;;6158862;22;90960;-88
2023/05/04 13:42:21;;;;;;;2.30;1.10;;;34.80;31.40;;;;;;6158370;22;88365;-87
2023/05/04 13:44:47;;;;;;;2.40;1.10;;;34.80;32.70;;;;;;6158503;22;89113;-87
2023/05/04 13:47:13;;;;;;;4.38;0.98;;;34.80;33.80;;;;;;6160220;22;91302;-86
2023/05/04 13:49:39;;;;;;;4.25;1.10;;;35.00;33.40;;;;;;6159361;22;91096;-87
2023/05/04 13:52:05;;;;;;;4.55;0.98;;;35.20;32.20;;;;;;6186335;22;87554;-85
2023/05/04 13:54:31;;;;;;;3.63;0.85;;;35.50;33.70;;;;;;6141063;22;90732;-86
2023/05/04 13:56:57;;;;;;;1.38;1.00;;;36.10;30.80;;;;;;6145247;22;90348;-88
2023/05/04 13:59:23;;;;;;;2.03;0.80;;;36.40;31.40;;;;;;6161442;22;91399;-92
2023/05/04 14:01:49;;;;;;;3.30;1.10;;;36.50;30.30;;;;;;6159690;22;87369;-83